sensor_id;sensor_type;location;lat;lon;timestamp;pressure;altitude;pressure_sealevel;temperature;humidity
73024;BME280;61199;47.526;8.538;2023-07-29T00:02:13;96138.19;;;21.25;75.02
73024;BME280;61199;47.526;8.538;2023-07-29T00:04:39;96144.13;;;21.20;75.54
73024;BME280;61199;47.526;8.538;2023-07-29T00:07:06;96142.69;;;21.24;74.50
73024;BME280;61199;47.526;8.538;2023-07-29T00:09:32;96140.41;;;21.28;74.01
73024;BME280;61199;47.526;8.538;2023-07-29T00:11:58;96139.63;;;21.27;73.62
73024;BME280;61199;47.526;8.538;2023-07-29T00:14:25;96131.41;;;21.22;73.98
73024;BME280;61199;47.526;8.538;2023-07-29T00:16:51;96131.00;;;21.19;74.24
73024;BME280;61199;47.526;8.538;2023-07-29T00:19:18;96131.00;;;21.13;74.50
73024;BME280;61199;47.526;8.538;2023-07-29T00:21:46;96130.59;;;21.09;74.69
73024;BME280;61199;47.526;8.538;2023-07-29T00:24:12;96133.28;;;21.03;74.95
73024;BME280;61199;47.526;8.538;2023-07-29T00:26:39;96128.16;;;20.95;74.87
73024;BME280;61199;47.526;8.538;2023-07-29T00:29:05;96130.81;;;20.82;75.75
73024;BME280;61199;47.526;8.538;2023-07-29T00:31:32;96122.84;;;20.88;75.15
73024;BME280;61199;47.526;8.538;2023-07-29T00:33:58;96120.59;;;20.92;74.84
73024;BME280;61199;47.526;8.538;2023-07-29T00:36:25;96110.53;;;20.94;74.62
73024;BME280;61199;47.526;8.538;2023-07-29T00:38:51;96119.97;;;20.96;74.03
73024;BME280;61199;47.526;8.538;2023-07-29T00:41:19;96112.78;;;20.97;73.57
73024;BME280;61199;47.526;8.538;2023-07-29T00:43:47;96107.03;;;20.93;73.78
73024;BME280;61199;47.526;8.538;2023-07-29T00:46:14;96109.72;;;20.87;73.79
73024;BME280;61199;47.526;8.538;2023-07-29T00:48:41;96109.28;;;20.83;73.89
73024;BME280;61199;47.526;8.538;2023-07-29T00:51:07;96107.22;;;20.79;74.24
73024;BME280;61199;47.526;8.538;2023-07-29T00:53:34;96116.06;;;20.73;74.29
73024;BME280;61199;47.526;8.538;2023-07-29T00:56:00;96104.16;;;20.75;74.10
73024;BME280;61199;47.526;8.538;2023-07-29T00:58:27;96104.75;;;20.71;73.65
73024;BME280;61199;47.526;8.538;2023-07-29T01:00:54;96108.44;;;20.63;74.98
73024;BME280;61199;47.526;8.538;2023-07-29T01:03:21;96100.88;;;20.67;74.67
73024;BME280;61199;47.526;8.538;2023-07-29T01:08:28;96091.66;;;20.76;74.60
73024;BME280;61199;47.526;8.538;2023-07-29T01:11:03;96090.84;;;20.62;74.77
73024;BME280;61199;47.526;8.538;2023-07-29T01:13:44;96099.25;;;20.66;74.96
73024;BME280;61199;47.526;8.538;2023-07-29T01:16:21;96103.72;;;20.72;74.44
73024;BME280;61199;47.526;8.538;2023-07-29T01:18:51;96096.56;;;20.53;74.83
73024;BME280;61199;47.526;8.538;2023-07-29T01:21:20;96102.09;;;20.58;74.72
73024;BME280;61199;47.526;8.538;2023-07-29T01:23:52;96098.00;;;20.62;74.90
73024;BME280;61199;47.526;8.538;2023-07-29T01:26:18;96101.69;;;20.61;74.34
73024;BME280;61199;47.526;8.538;2023-07-29T01:28:45;96101.06;;;20.52;75.12
73024;BME280;61199;47.526;8.538;2023-07-29T01:31:29;96106.81;;;20.56;74.87
73024;BME280;61199;47.526;8.538;2023-07-29T01:34:01;96093.47;;;20.49;75.24
73024;BME280;61199;47.526;8.538;2023-07-29T01:36:31;96104.34;;;20.48;75.16
73024;BME280;61199;47.526;8.538;2023-07-29T01:39:01;96103.94;;;20.44;75.99
73024;BME280;61199;47.526;8.538;2023-07-29T01:41:29;96101.47;;;20.43;75.95
73024;BME280;61199;47.526;8.538;2023-07-29T01:43:56;96111.72;;;20.46;75.86
73024;BME280;61199;47.526;8.538;2023-07-29T01:46:23;96119.06;;;20.31;76.21
73024;BME280;61199;47.526;8.538;2023-07-29T01:48:49;96142.19;;;19.90;77.38
73024;BME280;61199;47.526;8.538;2023-07-29T01:51:16;96133.50;;;19.00;82.08
73024;BME280;61199;47.526;8.538;2023-07-29T01:53:42;96108.28;;;19.17;81.74
73024;BME280;61199;47.526;8.538;2023-07-29T01:56:08;96094.59;;;19.48;80.87
73024;BME280;61199;47.526;8.538;2023-07-29T01:58:35;96095.75;;;19.73;80.57
73024;BME280;61199;47.526;8.538;2023-07-29T02:01:01;96090.88;;;19.83;79.59
73024;BME280;61199;47.526;8.538;2023-07-29T02:03:28;96087.38;;;19.82;79.19
73024;BME280;61199;47.526;8.538;2023-07-29T02:05:54;96078.63;;;19.95;78.71
73024;BME280;61199;47.526;8.538;2023-07-29T02:08:21;96076.44;;;20.05;78.33
73024;BME280;61199;47.526;8.538;2023-07-29T02:10:47;96084.22;;;20.13;78.34
73024;BME280;61199;47.526;8.538;2023-07-29T02:13:15;96083.44;;;20.25;77.30
73024;BME280;61199;47.526;8.538;2023-07-29T02:15:42;96085.69;;;20.22;77.38
73024;BME280;61199;47.526;8.538;2023-07-29T02:18:08;96081.81;;;20.24;76.53
73024;BME280;61199;47.526;8.538;2023-07-29T02:20:34;96074.59;;;20.05;78.05
73024;BME280;61199;47.526;8.538;2023-07-29T02:23:01;96071.53;;;20.21;77.15
73024;BME280;61199;47.526;8.538;2023-07-29T02:25:27;96068.09;;;20.27;77.27
73024;BME280;61199;47.526;8.538;2023-07-29T02:27:54;96072.97;;;20.17;77.43
73024;BME280;61199;47.526;8.538;2023-07-29T02:30:21;96079.34;;;20.23;77.41
73024;BME280;61199;47.526;8.538;2023-07-29T02:32:47;96078.53;;;20.22;77.29
73024;BME280;61199;47.526;8.538;2023-07-29T02:35:14;96069.09;;;20.20;77.39
73024;BME280;61199;47.526;8.538;2023-07-29T02:37:40;96067.47;;;20.25;77.42
73024;BME280;61199;47.526;8.538;2023-07-29T02:40:07;96068.69;;;20.23;77.58
73024;BME280;61199;47.526;8.538;2023-07-29T02:42:34;96070.75;;;20.27;77.35
73024;BME280;61199;47.526;8.538;2023-07-29T02:45:00;96066.25;;;20.28;77.24
73024;BME280;61199;47.526;8.538;2023-07-29T02:47:26;96072.59;;;20.27;77.46
73024;BME280;61199;47.526;8.538;2023-07-29T02:49:53;96078.53;;;20.42;76.54
73024;BME280;61199;47.526;8.538;2023-07-29T02:52:19;96078.94;;;20.39;76.48
73024;BME280;61199;47.526;8.538;2023-07-29T02:54:46;96081.00;;;20.43;76.31
73024;BME280;61199;47.526;8.538;2023-07-29T02:57:13;96090.22;;;20.41;76.22
73024;BME280;61199;47.526;8.538;2023-07-29T02:59:40;96089.19;;;20.42;76.23
73024;BME280;61199;47.526;8.538;2023-07-29T03:02:06;96093.28;;;20.38;76.11
73024;BME280;61199;47.526;8.538;2023-07-29T03:04:33;96101.25;;;20.31;77.10
73024;BME280;61199;47.526;8.538;2023-07-29T03:06:59;96114.41;;;19.92;78.34
73024;BME280;61199;47.526;8.538;2023-07-29T03:09:26;96134.25;;;19.49;80.59
73024;BME280;61199;47.526;8.538;2023-07-29T03:11:52;96109.47;;;19.15;82.43
73024;BME280;61199;47.526;8.538;2023-07-29T03:14:21;96094.50;;;19.35;82.24
73024;BME280;61199;47.526;8.538;2023-07-29T03:16:47;96095.06;;;19.58;81.48
73024;BME280;61199;47.526;8.538;2023-07-29T03:19:15;96101.84;;;19.73;80.69
73024;BME280;61199;47.526;8.538;2023-07-29T03:21:41;96108.03;;;19.87;80.17
73024;BME280;61199;47.526;8.538;2023-07-29T03:24:07;96114.81;;;19.96;79.71
73024;BME280;61199;47.526;8.538;2023-07-29T03:26:34;96100.75;;;20.02;79.05
73024;BME280;61199;47.526;8.538;2023-07-29T03:29:01;96095.28;;;20.10;79.25
73024;BME280;61199;47.526;8.538;2023-07-29T03:31:27;96103.06;;;20.18;78.33
73024;BME280;61199;47.526;8.538;2023-07-29T03:33:54;96095.72;;;20.20;78.26
73024;BME280;61199;47.526;8.538;2023-07-29T03:36:21;96114.09;;;20.15;78.30
73024;BME280;61199;47.526;8.538;2023-07-29T03:38:47;96115.34;;;20.19;77.78
73024;BME280;61199;47.526;8.538;2023-07-29T03:41:14;96111.06;;;20.18;77.68
73024;BME280;61199;47.526;8.538;2023-07-29T03:43:40;96106.72;;;20.17;77.72
73024;BME280;61199;47.526;8.538;2023-07-29T03:46:06;96114.09;;;20.21;77.69
73024;BME280;61199;47.526;8.538;2023-07-29T03:48:37;96121.09;;;20.29;77.74
73024;BME280;61199;47.526;8.538;2023-07-29T03:51:04;96133.38;;;20.23;77.60
73024;BME280;61199;47.526;8.538;2023-07-29T03:53:30;96131.88;;;20.08;78.12
73024;BME280;61199;47.526;8.538;2023-07-29T03:55:56;96136.69;;;19.85;79.30
73024;BME280;61199;47.526;8.538;2023-07-29T03:58:23;96134.03;;;19.85;79.47
73024;BME280;61199;47.526;8.538;2023-07-29T04:00:49;96105.53;;;19.72;80.48
73024;BME280;61199;47.526;8.538;2023-07-29T04:03:16;96110.25;;;19.77;80.70
73024;BME280;61199;47.526;8.538;2023-07-29T04:05:42;96108.72;;;19.95;79.99
73024;BME280;61199;47.526;8.538;2023-07-29T04:08:09;96110.81;;;20.06;79.71
73024;BME280;61199;47.526;8.538;2023-07-29T04:10:36;96097.53;;;20.13;79.46
73024;BME280;61199;47.526;8.538;2023-07-29T04:13:04;96106.34;;;20.20;78.87
73024;BME280;61199;47.526;8.538;2023-07-29T04:15:30;96099.59;;;20.17;79.70
73024;BME280;61199;47.526;8.538;2023-07-29T04:17:56;96090.78;;;20.17;79.31
73024;BME280;61199;47.526;8.538;2023-07-29T04:20:23;96094.44;;;20.16;79.38
73024;BME280;61199;47.526;8.538;2023-07-29T04:22:49;96089.34;;;20.14;79.65
73024;BME280;61199;47.526;8.538;2023-07-29T04:25:16;96098.38;;;20.20;79.57
73024;BME280;61199;47.526;8.538;2023-07-29T04:27:42;96105.94;;;20.23;79.13
73024;BME280;61199;47.526;8.538;2023-07-29T04:30:09;96105.94;;;20.23;79.53
73024;BME280;61199;47.526;8.538;2023-07-29T04:32:35;96118.44;;;20.22;79.64
73024;BME280;61199;47.526;8.538;2023-07-29T04:35:02;96105.13;;;20.22;79.22
73024;BME280;61199;47.526;8.538;2023-07-29T04:37:29;96109.00;;;20.26;78.59
73024;BME280;61199;47.526;8.538;2023-07-29T04:39:55;96114.16;;;20.28;79.12
73024;BME280;61199;47.526;8.538;2023-07-29T04:42:21;96104.72;;;20.32;79.05
73024;BME280;61199;47.526;8.538;2023-07-29T04:44:48;96106.16;;;20.28;78.99
73024;BME280;61199;47.526;8.538;2023-07-29T04:47:15;96109.03;;;20.33;78.99
73024;BME280;61199;47.526;8.538;2023-07-29T04:49:41;96112.72;;;20.32;79.03
73024;BME280;61199;47.526;8.538;2023-07-29T04:52:08;96105.97;;;20.36;79.20
73024;BME280;61199;47.526;8.538;2023-07-29T04:54:34;96100.00;;;20.34;79.50
73024;BME280;61199;47.526;8.538;2023-07-29T04:57:01;96105.53;;;20.26;79.57
73024;BME280;61199;47.526;8.538;2023-07-29T04:59:27;96109.63;;;20.22;79.72
73024;BME280;61199;47.526;8.538;2023-07-29T05:01:53;96104.72;;;20.32;79.47
73024;BME280;61199;47.526;8.538;2023-07-29T05:04:20;96111.72;;;20.46;79.06
73024;BME280;61199;47.526;8.538;2023-07-29T05:06:47;96118.25;;;20.37;79.07
73024;BME280;61199;47.526;8.538;2023-07-29T05:09:15;96116.38;;;20.18;79.80
73024;BME280;61199;47.526;8.538;2023-07-29T05:11:42;96128.91;;;19.90;81.63
73024;BME280;61199;47.526;8.538;2023-07-29T05:14:13;96118.91;;;19.92;81.74
73024;BME280;61199;47.526;8.538;2023-07-29T05:16:39;96128.53;;;19.99;81.89
73024;BME280;61199;47.526;8.538;2023-07-29T05:19:06;96130.75;;;19.83;82.18
73024;BME280;61199;47.526;8.538;2023-07-29T05:21:32;96142.84;;;19.92;82.29
73024;BME280;61199;47.526;8.538;2023-07-29T05:23:59;96144.31;;;20.01;82.02
73024;BME280;61199;47.526;8.538;2023-07-29T05:26:25;96144.69;;;19.91;82.38
73024;BME280;61199;47.526;8.538;2023-07-29T05:28:52;96142.25;;;19.96;81.99
73024;BME280;61199;47.526;8.538;2023-07-29T05:31:18;96145.94;;;20.02;82.27
73024;BME280;61199;47.526;8.538;2023-07-29T05:33:45;96144.97;;;20.09;81.31
73024;BME280;61199;47.526;8.538;2023-07-29T05:36:11;96148.06;;;20.19;81.20
73024;BME280;61199;47.526;8.538;2023-07-29T05:38:38;96135.00;;;20.24;81.08
73024;BME280;61199;47.526;8.538;2023-07-29T05:41:04;96143.75;;;20.12;81.54
73024;BME280;61199;47.526;8.538;2023-07-29T05:43:30;96147.22;;;20.12;81.46
73024;BME280;61199;47.526;8.538;2023-07-29T05:45:57;96151.72;;;20.05;81.96
73024;BME280;61199;47.526;8.538;2023-07-29T05:48:23;96146.84;;;20.09;82.01
73024;BME280;61199;47.526;8.538;2023-07-29T05:50:50;96151.13;;;20.10;82.12
73024;BME280;61199;47.526;8.538;2023-07-29T05:53:17;96143.78;;;20.25;81.41
73024;BME280;61199;47.526;8.538;2023-07-29T05:55:43;96143.66;;;20.46;79.82
73024;BME280;61199;47.526;8.538;2023-07-29T05:58:10;96148.13;;;20.32;80.80
73024;BME280;61199;47.526;8.538;2023-07-29T06:00:37;96147.34;;;20.51;80.60
73024;BME280;61199;47.526;8.538;2023-07-29T06:03:03;96130.97;;;20.61;79.70
73024;BME280;61199;47.526;8.538;2023-07-29T06:05:30;96135.06;;;20.63;79.91
73024;BME280;61199;47.526;8.538;2023-07-29T06:07:56;96137.94;;;20.62;80.12
73024;BME280;61199;47.526;8.538;2023-07-29T06:10:22;96138.34;;;20.72;79.56
73024;BME280;61199;47.526;8.538;2023-07-29T06:12:49;96138.53;;;20.57;79.67
73024;BME280;61199;47.526;8.538;2023-07-29T06:15:16;96136.09;;;20.56;80.10
73024;BME280;61199;47.526;8.538;2023-07-29T06:17:42;96135.00;;;20.24;81.51
73024;BME280;61199;47.526;8.538;2023-07-29T06:20:09;96134.16;;;20.17;81.79
73024;BME280;61199;47.526;8.538;2023-07-29T06:22:36;96133.38;;;20.23;80.82
73024;BME280;61199;47.526;8.538;2023-07-29T06:25:02;96135.63;;;20.26;82.27
73024;BME280;61199;47.526;8.538;2023-07-29T06:27:29;96136.47;;;20.33;81.81
73024;BME280;61199;47.526;8.538;2023-07-29T06:29:55;96126.47;;;20.55;81.40
73024;BME280;61199;47.526;8.538;2023-07-29T06:32:22;96134.88;;;20.78;79.64
73024;BME280;61199;47.526;8.538;2023-07-29T06:34:48;96141.47;;;20.88;79.12
73024;BME280;61199;47.526;8.538;2023-07-29T06:37:14;96140.84;;;21.06;78.34
73024;BME280;61199;47.526;8.538;2023-07-29T06:39:41;96139.41;;;21.16;77.68
73024;BME280;61199;47.526;8.538;2023-07-29T06:42:07;96136.31;;;21.25;77.84
73024;BME280;61199;47.526;8.538;2023-07-29T06:44:34;96142.47;;;21.45;76.78
73024;BME280;61199;47.526;8.538;2023-07-29T06:47:00;96152.47;;;21.56;76.48
73024;BME280;61199;47.526;8.538;2023-07-29T06:49:26;96149.81;;;21.56;76.90
73024;BME280;61199;47.526;8.538;2023-07-29T06:51:53;96149.41;;;21.72;76.06
73024;BME280;61199;47.526;8.538;2023-07-29T06:54:24;96135.81;;;21.80;75.51
73024;BME280;61199;47.526;8.538;2023-07-29T06:56:50;96147.31;;;21.81;75.71
73024;BME280;61199;47.526;8.538;2023-07-29T06:59:17;96151.38;;;21.90;75.60
73024;BME280;61199;47.526;8.538;2023-07-29T07:01:43;96141.72;;;21.95;74.78
73024;BME280;61199;47.526;8.538;2023-07-29T07:04:10;96138.47;;;21.87;75.41
73024;BME280;61199;47.526;8.538;2023-07-29T07:06:36;96137.44;;;21.88;75.98
73024;BME280;61199;47.526;8.538;2023-07-29T07:09:03;96130.66;;;21.85;75.54
73024;BME280;61199;47.526;8.538;2023-07-29T07:11:30;96127.22;;;21.72;75.87
73024;BME280;61199;47.526;8.538;2023-07-29T07:13:56;96119.25;;;21.59;75.67
73024;BME280;61199;47.526;8.538;2023-07-29T07:16:23;96127.25;;;21.65;76.00
73024;BME280;61199;47.526;8.538;2023-07-29T07:18:50;96131.38;;;21.68;74.49
73024;BME280;61199;47.526;8.538;2023-07-29T07:21:16;96126.16;;;21.79;74.82
73024;BME280;61199;47.526;8.538;2023-07-29T07:23:43;96127.81;;;21.87;74.56
73024;BME280;61199;47.526;8.538;2023-07-29T07:26:09;96125.56;;;21.77;75.13
73024;BME280;61199;47.526;8.538;2023-07-29T07:28:36;96125.78;;;21.82;75.12
73024;BME280;61199;47.526;8.538;2023-07-29T07:31:02;96126.41;;;21.71;74.59
73024;BME280;61199;47.526;8.538;2023-07-29T07:33:28;96137.50;;;21.55;75.90
73024;BME280;61199;47.526;8.538;2023-07-29T07:35:58;96125.44;;;21.46;76.28
73024;BME280;61199;47.526;8.538;2023-07-29T07:38:25;96120.66;;;21.61;76.15
73024;BME280;61199;47.526;8.538;2023-07-29T07:40:55;96115.97;;;21.63;76.63
73024;BME280;61199;47.526;8.538;2023-07-29T07:43:23;96116.16;;;21.68;76.00
73024;BME280;61199;47.526;8.538;2023-07-29T07:45:50;96116.16;;;21.68;75.66
73024;BME280;61199;47.526;8.538;2023-07-29T07:48:17;96109.63;;;21.51;76.25
73024;BME280;61199;47.526;8.538;2023-07-29T07:50:43;96110.47;;;21.45;76.75
73024;BME280;61199;47.526;8.538;2023-07-29T07:53:10;96104.88;;;21.53;76.33
73024;BME280;61199;47.526;8.538;2023-07-29T07:55:37;96108.34;;;21.60;76.07
73024;BME280;61199;47.526;8.538;2023-07-29T07:58:03;96114.28;;;21.62;75.56
73024;BME280;61199;47.526;8.538;2023-07-29T08:00:29;96112.06;;;21.66;75.57
73024;BME280;61199;47.526;8.538;2023-07-29T08:02:56;96107.31;;;21.61;75.50
73024;BME280;61199;47.526;8.538;2023-07-29T08:05:22;96113.47;;;21.75;75.83
73024;BME280;61199;47.526;8.538;2023-07-29T08:07:49;96113.69;;;21.73;75.16
73024;BME280;61199;47.526;8.538;2023-07-29T08:10:15;96107.09;;;21.82;75.58
73024;BME280;61199;47.526;8.538;2023-07-29T08:12:42;96113.44;;;21.88;74.11
73024;BME280;61199;47.526;8.538;2023-07-29T08:15:08;96121.44;;;21.88;74.02
73024;BME280;61199;47.526;8.538;2023-07-29T08:17:35;96117.34;;;21.85;74.14
73024;BME280;61199;47.526;8.538;2023-07-29T08:20:01;96115.47;;;21.92;73.35
73024;BME280;61199;47.526;8.538;2023-07-29T08:22:28;96111.94;;;22.05;73.39
73024;BME280;61199;47.526;8.538;2023-07-29T08:24:54;96109.47;;;22.03;73.39
73024;BME280;61199;47.526;8.538;2023-07-29T08:27:21;96107.34;;;22.18;73.44
73024;BME280;61199;47.526;8.538;2023-07-29T08:29:47;96110.31;;;22.41;71.76
73024;BME280;61199;47.526;8.538;2023-07-29T08:32:13;96112.13;;;22.41;72.48
73024;BME280;61199;47.526;8.538;2023-07-29T08:34:40;96114.34;;;22.50;72.15
73024;BME280;61199;47.526;8.538;2023-07-29T08:37:06;96118.69;;;22.45;71.36
73024;BME280;61199;47.526;8.538;2023-07-29T08:39:33;96110.56;;;22.64;71.05
73024;BME280;61199;47.526;8.538;2023-07-29T08:42:08;96108.00;;;22.76;70.99
73024;BME280;61199;47.526;8.538;2023-07-29T08:44:42;96119.34;;;22.71;69.34
73024;BME280;61199;47.526;8.538;2023-07-29T08:47:09;96120.16;;;22.72;69.81
73024;BME280;61199;47.526;8.538;2023-07-29T08:49:37;96125.56;;;22.65;70.06
73024;BME280;61199;47.526;8.538;2023-07-29T08:52:05;96123.28;;;22.69;69.67
73024;BME280;61199;47.526;8.538;2023-07-29T08:54:32;96107.66;;;22.90;68.64
73024;BME280;61199;47.526;8.538;2023-07-29T08:56:59;96107.72;;;23.15;68.31
73024;BME280;61199;47.526;8.538;2023-07-29T08:59:27;96111.63;;;23.12;68.67
73024;BME280;61199;47.526;8.538;2023-07-29T09:01:54;96100.53;;;23.09;68.43
73024;BME280;61199;47.526;8.538;2023-07-29T09:04:23;96102.63;;;23.31;68.54
73024;BME280;61199;47.526;8.538;2023-07-29T09:06:50;96108.88;;;23.43;67.15
73024;BME280;61199;47.526;8.538;2023-07-29T09:09:17;96109.75;;;23.37;65.89
73024;BME280;61199;47.526;8.538;2023-07-29T09:11:43;96109.56;;;23.14;66.75
73024;BME280;61199;47.526;8.538;2023-07-29T09:14:10;96115.22;;;23.24;66.29
73024;BME280;61199;47.526;8.538;2023-07-29T09:16:38;96099.66;;;23.39;64.79
73024;BME280;61199;47.526;8.538;2023-07-29T09:19:05;96108.47;;;23.40;66.42
73024;BME280;61199;47.526;8.538;2023-07-29T09:21:32;96104.09;;;23.45;66.35
73024;BME280;61199;47.526;8.538;2023-07-29T09:24:03;96104.13;;;23.63;65.71
73024;BME280;61199;47.526;8.538;2023-07-29T09:26:30;96105.63;;;23.77;66.45
73024;BME280;61199;47.526;8.538;2023-07-29T09:28:59;96096.34;;;23.98;65.79
73024;BME280;61199;47.526;8.538;2023-07-29T09:31:26;96106.94;;;24.22;65.00
73024;BME280;61199;47.526;8.538;2023-07-29T09:33:57;96102.91;;;24.31;64.84
73024;BME280;61199;47.526;8.538;2023-07-29T09:36:25;96100.94;;;24.38;64.60
73024;BME280;61199;47.526;8.538;2023-07-29T09:38:55;96103.03;;;24.65;63.54
73024;BME280;61199;47.526;8.538;2023-07-29T09:41:23;96103.53;;;24.74;62.60
73024;BME280;61199;47.526;8.538;2023-07-29T09:43:56;96101.44;;;24.76;62.44
73024;BME280;61199;47.526;8.538;2023-07-29T09:46:25;96094.00;;;24.89;62.78
73024;BME280;61199;47.526;8.538;2023-07-29T09:48:53;96095.66;;;25.02;62.28
73024;BME280;61199;47.526;8.538;2023-07-29T09:51:23;96103.69;;;25.02;62.22
73024;BME280;61199;47.526;8.538;2023-07-29T09:53:51;96098.44;;;25.07;61.38
73024;BME280;61199;47.526;8.538;2023-07-29T09:56:25;96113.03;;;24.58;63.25
73024;BME280;61199;47.526;8.538;2023-07-29T09:58:53;96104.63;;;24.55;62.81
73024;BME280;61199;47.526;8.538;2023-07-29T10:01:21;96106.88;;;24.40;62.39
73024;BME280;61199;47.526;8.538;2023-07-29T10:03:48;96098.50;;;24.37;63.01
73024;BME280;61199;47.526;8.538;2023-07-29T10:06:15;96107.31;;;24.55;63.27
73024;BME280;61199;47.526;8.538;2023-07-29T10:08:42;96098.25;;;24.67;63.12
73024;BME280;61199;47.526;8.538;2023-07-29T10:11:10;96093.41;;;24.76;62.92
73024;BME280;61199;47.526;8.538;2023-07-29T10:13:38;96086.66;;;24.85;61.26
73024;BME280;61199;47.526;8.538;2023-07-29T10:16:05;96101.97;;;24.37;62.04
73024;BME280;61199;47.526;8.538;2023-07-29T10:18:33;96094.53;;;24.39;63.23
73024;BME280;61199;47.526;8.538;2023-07-29T10:21:00;96102.56;;;24.57;62.61
73024;BME280;61199;47.526;8.538;2023-07-29T10:23:32;96098.53;;;24.48;61.41
73024;BME280;61199;47.526;8.538;2023-07-29T10:26:05;96091.59;;;24.58;62.39
73024;BME280;61199;47.526;8.538;2023-07-29T10:28:32;96081.16;;;24.80;60.84
73024;BME280;61199;47.526;8.538;2023-07-29T10:30:59;96079.06;;;24.93;59.34
73024;BME280;61199;47.526;8.538;2023-07-29T10:33:26;96081.41;;;25.01;60.79
73024;BME280;61199;47.526;8.538;2023-07-29T10:35:53;96087.06;;;25.23;61.60
73024;BME280;61199;47.526;8.538;2023-07-29T10:38:22;96090.09;;;25.38;60.36
73024;BME280;61199;47.526;8.538;2023-07-29T10:40:54;96080.41;;;25.37;61.01
73024;BME280;61199;47.526;8.538;2023-07-29T10:43:32;96073.97;;;25.61;60.06
73024;BME280;61199;47.526;8.538;2023-07-29T10:46:16;96072.41;;;25.76;58.84
73024;BME280;61199;47.526;8.538;2023-07-29T10:48:56;96065.84;;;25.33;57.48
73024;BME280;61199;47.526;8.538;2023-07-29T10:54:17;96069.56;;;25.32;57.67
73024;BME280;61199;47.526;8.538;2023-07-29T10:56:48;96056.72;;;25.45;57.26
73024;BME280;61199;47.526;8.538;2023-07-29T11:01:56;96055.69;;;25.35;56.80
73024;BME280;61199;47.526;8.538;2023-07-29T11:04:30;96070.50;;;25.26;57.44
73024;BME280;61199;47.526;8.538;2023-07-29T11:12:35;96092.72;;;24.80;62.10
73024;BME280;61199;47.526;8.538;2023-07-29T11:17:58;96076.91;;;24.32;65.52
73024;BME280;61199;47.526;8.538;2023-07-29T11:20:30;96090.28;;;24.20;67.35
73024;BME280;61199;47.526;8.538;2023-07-29T11:22:58;96081.38;;;24.08;68.66
73024;BME280;61199;47.526;8.538;2023-07-29T11:25:28;96072.84;;;24.29;69.04
73024;BME280;61199;47.526;8.538;2023-07-29T11:27:57;96058.47;;;24.53;69.75
73024;BME280;61199;47.526;8.538;2023-07-29T11:30:25;96068.75;;;23.97;69.40
73024;BME280;61199;47.526;8.538;2023-07-29T11:32:54;96065.78;;;23.33;70.79
73024;BME280;61199;47.526;8.538;2023-07-29T11:35:22;96082.78;;;23.39;72.25
73024;BME280;61199;47.526;8.538;2023-07-29T11:37:49;96083.63;;;23.39;70.96
73024;BME280;61199;47.526;8.538;2023-07-29T11:40:20;96069.03;;;23.35;71.60
73024;BME280;61199;47.526;8.538;2023-07-29T11:42:48;96075.34;;;23.23;72.06
73024;BME280;61199;47.526;8.538;2023-07-29T11:45:17;96072.56;;;23.54;71.21
73024;BME280;61199;47.526;8.538;2023-07-29T11:47:44;96066.59;;;23.34;70.96
73024;BME280;61199;47.526;8.538;2023-07-29T11:50:13;96049.88;;;23.20;72.30
73024;BME280;61199;47.526;8.538;2023-07-29T11:52:45;96045.72;;;23.42;72.59
73024;BME280;61199;47.526;8.538;2023-07-29T11:55:13;96041.78;;;23.45;72.01
73024;BME280;61199;47.526;8.538;2023-07-29T11:57:41;96039.56;;;23.60;72.80
73024;BME280;61199;47.526;8.538;2023-07-29T12:00:09;96037.41;;;23.68;73.34
73024;BME280;61199;47.526;8.538;2023-07-29T12:02:39;96054.78;;;23.77;73.09
73024;BME280;61199;47.526;8.538;2023-07-29T12:05:06;96059.47;;;23.46;75.04
73024;BME280;61199;47.526;8.538;2023-07-29T12:07:34;96066.38;;;23.35;76.41
73024;BME280;61199;47.526;8.538;2023-07-29T12:10:02;96077.97;;;23.47;76.63
73024;BME280;61199;47.526;8.538;2023-07-29T12:12:29;96082.41;;;23.71;75.42
73024;BME280;61199;47.526;8.538;2023-07-29T12:14:56;96094.38;;;23.69;75.03
73024;BME280;61199;47.526;8.538;2023-07-29T12:17:22;96094.06;;;23.77;75.07
73024;BME280;61199;47.526;8.538;2023-07-29T12:19:49;96076.03;;;23.90;74.35
73024;BME280;61199;47.526;8.538;2023-07-29T12:22:19;96074.75;;;24.11;74.63
73024;BME280;61199;47.526;8.538;2023-07-29T12:24:46;96103.78;;;24.25;75.60
73024;BME280;61199;47.526;8.538;2023-07-29T12:27:14;96121.50;;;24.26;74.60
73024;BME280;61199;47.526;8.538;2023-07-29T12:29:43;96111.53;;;24.15;74.38
73024;BME280;61199;47.526;8.538;2023-07-29T12:32:10;96135.50;;;23.56;73.94
73024;BME280;61199;47.526;8.538;2023-07-29T12:34:38;96130.56;;;23.53;75.94
73024;BME280;61199;47.526;8.538;2023-07-29T12:37:06;96141.25;;;23.53;75.48
73024;BME280;61199;47.526;8.538;2023-07-29T12:39:34;96151.91;;;22.86;75.00
73024;BME280;61199;47.526;8.538;2023-07-29T12:42:02;96145.00;;;22.41;75.98
73024;BME280;61199;47.526;8.538;2023-07-29T12:44:33;96137.47;;;22.63;74.97
73024;BME280;61199;47.526;8.538;2023-07-29T12:47:02;96155.88;;;22.77;73.19
73024;BME280;61199;47.526;8.538;2023-07-29T12:49:29;96169.97;;;22.60;73.59
73024;BME280;61199;47.526;8.538;2023-07-29T12:51:56;96170.06;;;22.40;73.98
73024;BME280;61199;47.526;8.538;2023-07-29T12:54:23;96175.38;;;22.47;74.12
73024;BME280;61199;47.526;8.538;2023-07-29T12:56:50;96167.63;;;21.82;73.90
73024;BME280;61199;47.526;8.538;2023-07-29T12:59:16;96180.13;;;21.81;74.95
73024;BME280;61199;47.526;8.538;2023-07-29T13:01:43;96190.03;;;21.42;74.41
73024;BME280;61199;47.526;8.538;2023-07-29T13:04:10;96200.06;;;21.27;75.88
73024;BME280;61199;47.526;8.538;2023-07-29T13:06:37;96190.88;;;20.91;78.35
73024;BME280;61199;47.526;8.538;2023-07-29T13:09:04;96184.25;;;20.74;77.14
73024;BME280;61199;47.526;8.538;2023-07-29T13:11:31;96184.28;;;20.93;76.92
73024;BME280;61199;47.526;8.538;2023-07-29T13:13:59;96188.81;;;21.06;76.25
73024;BME280;61199;47.526;8.538;2023-07-29T13:16:27;96195.16;;;21.05;75.19
73024;BME280;61199;47.526;8.538;2023-07-29T13:18:54;96208.47;;;21.11;75.01